createdAt,value
2023-02-25T00:01:44.448Z,100.00
2023-02-25T00:04:15.575Z,100.00
2023-02-25T00:06:42.558Z,100.00
2023-02-25T00:09:11.421Z,100.00
2023-02-25T00:11:38.603Z,99.51
2023-02-25T00:14:05.681Z,99.84
2023-02-25T00:16:32.878Z,99.00
2023-02-25T00:18:59.983Z,98.11
2023-02-25T00:21:29.671Z,96.70
2023-02-25T00:24:00.137Z,99.39
2023-02-25T00:26:31.572Z,99.59
2023-02-25T00:28:58.503Z,98.22
2023-02-25T00:31:26.066Z,96.75
2023-02-25T00:33:53.581Z,96.58
2023-02-25T00:36:24.071Z,94.70
2023-02-25T00:38:53.540Z,93.08
2023-02-25T00:41:23.675Z,93.10
2023-02-25T00:43:56.424Z,96.24
2023-02-25T00:46:24.965Z,97.44
2023-02-25T00:48:52.359Z,98.00
2023-02-25T00:51:25.351Z,100.00
2023-02-25T00:53:53.808Z,100.00
2023-02-25T00:56:21.067Z,100.00
2023-02-25T00:58:50.299Z,100.00
2023-02-25T01:01:24.440Z,100.00
2023-02-25T01:03:53.971Z,100.00
2023-02-25T01:06:21.693Z,100.00
2023-02-25T01:08:49.591Z,100.00
2023-02-25T01:11:27.808Z,100.00
2023-02-25T01:13:57.152Z,100.00
2023-02-25T01:16:27.577Z,100.00
2023-02-25T01:19:00.613Z,100.00
2023-02-25T01:21:34.302Z,100.00
2023-02-25T01:24:06.740Z,100.00
2023-02-25T01:26:38.260Z,100.00
2023-02-25T01:29:10.471Z,100.00
2023-02-25T01:31:38.373Z,100.00
2023-02-25T01:34:08.043Z,100.00
2023-02-25T01:36:35.756Z,98.28
2023-02-25T01:39:04.404Z,99.49
2023-02-25T01:41:33.395Z,98.95
2023-02-25T01:44:17.626Z,97.30
2023-02-25T01:46:47.191Z,97.13
2023-02-25T01:49:44.789Z,97.12
2023-02-25T01:52:16.153Z,98.85
2023-02-25T01:54:45.307Z,99.60
2023-02-25T01:57:15.627Z,98.29
2023-02-25T01:59:44.045Z,98.75
2023-02-25T02:02:19.206Z,98.62
2023-02-25T02:04:50.921Z,99.82
2023-02-25T02:07:22.986Z,98.06
2023-02-25T02:10:00.054Z,100.00
2023-02-25T02:12:34.290Z,100.00
2023-02-25T02:15:04.499Z,100.00
2023-02-25T02:17:40.336Z,100.00
2023-02-25T02:20:13.333Z,100.00
2023-02-25T02:22:42.962Z,100.00
2023-02-25T02:25:28.124Z,100.00
2023-02-25T02:28:19.840Z,100.00
2023-02-25T02:31:24.959Z,100.00
2023-02-25T02:34:19.550Z,100.00
2023-02-25T02:37:04.473Z,100.00
2023-02-25T02:40:26.039Z,100.00
2023-02-25T02:43:20.021Z,100.00
2023-02-25T02:46:28.905Z,96.64
2023-02-25T02:49:05.895Z,94.46
2023-02-25T02:51:44.758Z,99.80
2023-02-25T02:54:14.995Z,96.52
2023-02-25T02:56:45.047Z,96.98
2023-02-25T02:59:25.444Z,99.72
2023-02-25T03:02:06.693Z,98.87
2023-02-25T03:04:38.413Z,100.00
2023-02-25T03:07:10.651Z,99.31
2023-02-25T03:09:46.365Z,98.93
2023-02-25T03:12:13.436Z,99.41
2023-02-25T03:14:40.616Z,97.62
2023-02-25T03:17:14.040Z,100.00
2023-02-25T03:19:45.176Z,100.00
2023-02-25T03:22:19.656Z,100.00
2023-02-25T03:24:53.753Z,100.00
2023-02-25T03:27:34.465Z,100.00
2023-02-25T03:30:13.135Z,99.67
2023-02-25T03:32:45.208Z,95.14
2023-02-25T03:35:14.758Z,92.63
2023-02-25T03:37:46.809Z,99.43
2023-02-25T03:40:15.818Z,100.00
2023-02-25T03:42:48.809Z,100.00
2023-02-25T03:45:17.355Z,99.90
2023-02-25T03:47:44.560Z,98.09
2023-02-25T03:50:19.251Z,97.41
2023-02-25T03:52:48.584Z,96.40
2023-02-25T03:55:35.470Z,96.55
2023-02-25T03:58:02.894Z,96.73
2023-02-25T04:00:33.047Z,96.53
2023-02-25T04:03:00.641Z,94.98
2023-02-25T04:05:28.207Z,94.94
2023-02-25T04:07:57.614Z,94.06
2023-02-25T04:10:26.467Z,93.62
2023-02-25T04:12:53.384Z,93.90
2023-02-25T04:15:21.075Z,93.34
2023-02-25T04:17:48.055Z,93.10
2023-02-25T04:20:17.316Z,93.27
2023-02-25T04:22:44.433Z,94.25
2023-02-25T04:25:11.524Z,93.86
2023-02-25T04:27:38.391Z,93.69
2023-02-25T04:30:05.963Z,93.47
2023-02-25T04:32:32.903Z,92.63
2023-02-25T04:35:03.235Z,91.98
2023-02-25T04:37:31.078Z,91.07
2023-02-25T04:39:58.528Z,91.00
2023-02-25T04:42:25.526Z,90.72
2023-02-25T04:44:52.381Z,93.56
2023-02-25T04:47:19.340Z,93.90
2023-02-25T04:49:46.331Z,93.04
2023-02-25T04:52:16.091Z,95.23
2023-02-25T04:54:43.042Z,95.00
2023-02-25T04:57:11.849Z,95.73
2023-02-25T04:59:39.537Z,95.47
2023-02-25T05:02:07.636Z,95.27
2023-02-25T05:04:38.661Z,94.03
2023-02-25T05:07:07.242Z,94.83
2023-02-25T05:09:34.559Z,94.27
2023-02-25T05:12:02.028Z,93.32
2023-02-25T05:14:30.022Z,95.14
2023-02-25T05:16:58.308Z,93.90
2023-02-25T05:19:25.899Z,91.50
2023-02-25T05:21:53.686Z,90.03
2023-02-25T05:24:23.813Z,88.57
2023-02-25T05:26:51.804Z,86.84
2023-02-25T05:29:19.294Z,87.20
2023-02-25T05:31:46.364Z,85.82
2023-02-25T05:34:13.469Z,83.27
2023-02-25T05:36:40.730Z,80.80
2023-02-25T05:39:07.650Z,79.42
2023-02-25T05:41:34.490Z,78.10
2023-02-25T05:44:01.438Z,76.73
2023-02-25T05:46:28.617Z,75.53
2023-02-25T05:48:55.625Z,74.61
2023-02-25T05:51:23.832Z,73.85
2023-02-25T05:53:52.242Z,72.36
2023-02-25T05:56:25.671Z,71.63
2023-02-25T05:58:52.940Z,65.33
2023-02-25T06:01:27.958Z,63.38
2023-02-25T06:03:58.672Z,60.25
2023-02-25T06:06:28.198Z,63.02
2023-02-25T06:08:55.145Z,68.00
2023-02-25T06:11:25.247Z,69.57
2023-02-25T06:13:53.837Z,70.99
2023-02-25T06:16:22.100Z,73.46
2023-02-25T06:18:51.518Z,73.20
2023-02-25T06:21:19.068Z,73.02
2023-02-25T06:23:45.978Z,69.22
2023-02-25T06:26:14.782Z,70.82
2023-02-25T06:28:42.249Z,69.77
2023-02-25T06:31:11.401Z,66.16
2023-02-25T06:33:39.410Z,65.76
2023-02-25T06:36:07.749Z,64.12
2023-02-25T06:38:36.202Z,63.42
2023-02-25T06:41:14.271Z,63.40
2023-02-25T06:43:42.297Z,65.42
2023-02-25T06:46:12.116Z,64.34
2023-02-25T06:48:39.466Z,65.54
2023-02-25T06:51:11.513Z,66.07
2023-02-25T06:53:39.767Z,65.58
2023-02-25T06:56:08.436Z,65.80
2023-02-25T06:58:35.676Z,64.46
2023-02-25T07:01:10.120Z,62.19
2023-02-25T07:03:37.837Z,60.09
2023-02-25T07:06:05.271Z,61.13
2023-02-25T07:08:32.605Z,62.49
2023-02-25T07:11:25.328Z,59.90
2023-02-25T07:13:52.309Z,59.71
2023-02-25T07:16:19.639Z,59.41
2023-02-25T07:18:46.910Z,57.25
2023-02-25T07:21:14.721Z,56.08
2023-02-25T07:23:42.424Z,55.08
2023-02-25T07:26:11.494Z,54.93
2023-02-25T07:28:39.464Z,55.67
2023-02-25T07:31:15.682Z,54.55
2023-02-25T07:33:43.673Z,54.05
2023-02-25T07:36:12.019Z,51.56
2023-02-25T07:38:39.589Z,52.44
2023-02-25T07:41:08.950Z,54.79
2023-02-25T07:43:36.012Z,49.79
2023-02-25T07:46:03.777Z,52.41
2023-02-25T07:48:31.198Z,48.33
2023-02-25T07:51:08.568Z,47.43
2023-02-25T07:53:36.127Z,46.11
2023-02-25T07:56:03.227Z,41.97
2023-02-25T07:58:30.134Z,37.89
2023-02-25T08:00:57.161Z,33.46
2023-02-25T08:03:24.298Z,33.37
2023-02-25T08:05:54.163Z,31.61
2023-02-25T08:08:22.241Z,29.78
2023-02-25T08:10:49.710Z,29.17
2023-02-25T08:13:16.656Z,29.29
2023-02-25T08:15:44.529Z,29.24
2023-02-25T08:18:11.836Z,34.29
2023-02-25T08:20:38.758Z,33.96
2023-02-25T08:23:06.481Z,34.27
2023-02-25T08:25:33.439Z,36.01
2023-02-25T08:28:01.184Z,35.16
2023-02-25T08:30:28.188Z,33.69
2023-02-25T08:32:55.182Z,30.17
2023-02-25T08:35:22.140Z,29.28
2023-02-25T08:37:48.993Z,28.62
2023-02-25T08:40:17.296Z,28.92
2023-02-25T08:42:45.512Z,27.13
2023-02-25T08:45:12.597Z,32.27
2023-02-25T08:47:39.461Z,36.35
2023-02-25T08:50:06.653Z,33.34
2023-02-25T08:52:33.830Z,33.14
2023-02-25T08:55:02.115Z,31.20
2023-02-25T08:57:29.956Z,30.60
2023-02-25T08:59:57.086Z,29.37
2023-02-25T09:02:24.440Z,28.82
2023-02-25T09:04:51.834Z,28.12
2023-02-25T09:07:18.845Z,27.55
2023-02-25T09:09:45.879Z,26.93
2023-02-25T09:12:12.811Z,29.01
2023-02-25T09:14:39.706Z,27.89
2023-02-25T09:17:06.960Z,27.29
2023-02-25T09:19:34.275Z,25.92
2023-02-25T09:22:01.888Z,26.29
2023-02-25T09:24:30.203Z,28.71
2023-02-25T09:26:57.195Z,31.52
2023-02-25T09:29:24.151Z,30.10
2023-02-25T09:31:51.254Z,30.28
2023-02-25T09:34:18.465Z,31.25
2023-02-25T09:36:45.387Z,31.26
2023-02-25T09:39:13.465Z,31.49
2023-02-25T09:41:56.021Z,34.19
2023-02-25T09:44:28.484Z,34.20
2023-02-25T09:47:25.005Z,31.85
2023-02-25T09:49:53.937Z,31.87
2023-02-25T09:52:41.952Z,32.19
2023-02-25T09:55:22.931Z,32.85
2023-02-25T09:58:11.256Z,31.17
2023-02-25T10:00:48.535Z,29.57
2023-02-25T10:03:26.755Z,28.28
2023-02-25T10:06:03.111Z,28.14
2023-02-25T10:08:48.020Z,28.03
2023-02-25T10:11:34.088Z,29.53
2023-02-25T10:14:33.935Z,29.44
2023-02-25T10:17:32.869Z,28.63
2023-02-25T10:20:25.140Z,29.55
2023-02-25T10:23:07.337Z,28.70
2023-02-25T10:25:41.137Z,31.12
2023-02-25T10:28:16.480Z,30.34
2023-02-25T10:31:03.960Z,30.19
2023-02-25T10:33:37.045Z,28.55
2023-02-25T10:36:16.385Z,27.75
2023-02-25T10:38:50.030Z,27.46
2023-02-25T10:41:17.823Z,28.00
2023-02-25T10:43:45.935Z,28.63
2023-02-25T10:46:54.193Z,31.67
2023-02-25T10:49:26.046Z,31.95
2023-02-25T10:52:03.303Z,31.79
2023-02-25T10:54:35.533Z,31.23
2023-02-25T10:57:12.721Z,31.03
2023-02-25T10:59:40.972Z,30.76
2023-02-25T11:02:28.096Z,32.36
2023-02-25T11:04:55.880Z,32.49
2023-02-25T11:07:33.116Z,31.06
2023-02-25T11:10:19.577Z,31.87
2023-02-25T11:12:53.860Z,30.85
2023-02-25T11:15:31.673Z,31.13
2023-02-25T11:18:23.718Z,31.41
2023-02-25T11:21:02.000Z,31.22
2023-02-25T11:24:01.767Z,31.14
2023-02-25T11:26:33.551Z,30.19
2023-02-25T11:29:09.493Z,30.00
2023-02-25T11:31:40.813Z,27.75
2023-02-25T11:34:21.297Z,28.38
2023-02-25T11:36:50.953Z,28.55
2023-02-25T11:39:27.860Z,28.68
2023-02-25T11:42:01.913Z,28.31
2023-02-25T11:44:42.710Z,29.10
2023-02-25T11:47:26.121Z,28.55
2023-02-25T11:50:05.165Z,27.80
2023-02-25T11:52:39.108Z,27.40
2023-02-25T11:55:21.557Z,27.86
2023-02-25T11:57:54.393Z,27.46
2023-02-25T12:00:29.839Z,28.61
2023-02-25T12:03:15.257Z,27.76
2023-02-25T12:05:47.898Z,27.67
2023-02-25T12:08:20.668Z,28.21
2023-02-25T12:10:59.833Z,28.95
2023-02-25T12:14:04.157Z,29.48
2023-02-25T12:16:49.702Z,29.96
2023-02-25T12:19:44.994Z,29.95
2023-02-25T12:22:13.286Z,29.03
2023-02-25T12:24:52.249Z,28.58
2023-02-25T12:27:47.438Z,28.54
2023-02-25T12:30:47.331Z,29.48
2023-02-25T12:33:32.017Z,28.50
2023-02-25T12:36:38.864Z,29.94
2023-02-25T12:39:34.691Z,29.56
2023-02-25T12:42:30.716Z,30.43
2023-02-25T12:45:36.315Z,30.90
2023-02-25T12:48:35.262Z,33.53
2023-02-25T12:51:29.447Z,32.12
2023-02-25T12:54:17.907Z,31.87
2023-02-25T12:57:08.998Z,33.39
2023-02-25T12:59:42.140Z,32.67
2023-02-25T13:02:35.323Z,33.23
2023-02-25T13:05:37.300Z,32.50
2023-02-25T13:08:28.637Z,30.81
2023-02-25T13:11:31.334Z,30.59
2023-02-25T13:14:37.409Z,30.73
2023-02-25T13:17:04.549Z,32.31
2023-02-25T13:20:15.614Z,31.05
2023-02-25T13:22:48.053Z,31.28
2023-02-25T13:25:44.901Z,31.86
2023-02-25T13:28:40.672Z,34.40
2023-02-25T13:31:35.953Z,35.56
2023-02-25T13:34:30.589Z,37.94
2023-02-25T13:37:21.052Z,38.82
2023-02-25T13:39:56.107Z,38.91
2023-02-25T13:42:41.686Z,39.02
2023-02-25T13:45:24.765Z,39.74
2023-02-25T13:48:07.981Z,39.96
2023-02-25T13:50:56.943Z,40.88
2023-02-25T13:53:41.753Z,40.18
2023-02-25T13:56:37.640Z,40.01
2023-02-25T13:59:26.381Z,39.12
2023-02-25T14:02:41.272Z,39.35
2023-02-25T14:05:58.338Z,39.93
2023-02-25T14:08:48.741Z,40.16
2023-02-25T14:11:37.024Z,40.39
2023-02-25T14:14:25.931Z,40.77
2023-02-25T14:17:23.851Z,41.09
2023-02-25T14:20:13.608Z,41.20
2023-02-25T14:22:53.746Z,41.83
2023-02-25T14:25:20.690Z,41.41
2023-02-25T14:28:28.569Z,41.50
2023-02-25T14:31:10.624Z,41.50
2023-02-25T14:33:59.095Z,41.75
2023-02-25T14:36:41.122Z,41.78
2023-02-25T14:39:32.320Z,41.58
2023-02-25T14:42:18.492Z,41.32
2023-02-25T14:45:09.270Z,40.89
2023-02-25T14:47:46.478Z,40.05
2023-02-25T14:50:20.478Z,38.84
2023-02-25T14:52:51.615Z,39.66
2023-02-25T14:55:29.468Z,40.44
2023-02-25T14:58:16.946Z,41.81
2023-02-25T15:01:14.315Z,41.67
2023-02-25T15:04:04.934Z,41.98
2023-02-25T15:06:37.961Z,41.88
2023-02-25T15:09:38.617Z,42.48
2023-02-25T15:12:20.817Z,43.29
2023-02-25T15:15:05.639Z,42.20
2023-02-25T15:18:02.850Z,41.58
2023-02-25T15:20:33.235Z,41.31
2023-02-25T15:23:07.966Z,42.04
2023-02-25T15:25:38.387Z,42.46
2023-02-25T15:28:30.084Z,42.07
2023-02-25T15:31:00.463Z,42.40
2023-02-25T15:33:47.631Z,41.95
2023-02-25T15:36:14.506Z,42.69
2023-02-25T15:38:56.453Z,43.18
2023-02-25T15:41:29.226Z,43.11
2023-02-25T15:44:01.509Z,42.84
2023-02-25T15:46:48.254Z,43.18
2023-02-25T15:49:34.548Z,42.81
2023-02-25T15:52:04.796Z,43.16
2023-02-25T15:54:31.736Z,43.07
2023-02-25T15:57:05.141Z,43.33
2023-02-25T16:00:04.892Z,43.38
2023-02-25T16:02:34.849Z,43.83
2023-02-25T16:05:24.820Z,43.99
2023-02-25T16:08:05.759Z,44.32
2023-02-25T16:10:42.163Z,44.57
2023-02-25T16:13:16.465Z,45.25
2023-02-25T16:15:50.292Z,45.12
2023-02-25T16:18:20.227Z,45.20
2023-02-25T16:20:51.272Z,46.54
2023-02-25T16:23:19.174Z,46.70
2023-02-25T16:26:09.969Z,46.19
2023-02-25T16:29:10.902Z,46.16
2023-02-25T16:32:00.395Z,45.82
2023-02-25T16:34:41.702Z,45.68
2023-02-25T16:37:20.229Z,45.70
2023-02-25T16:39:47.605Z,45.77
2023-02-25T16:42:17.233Z,45.46
2023-02-25T16:44:48.245Z,46.63
2023-02-25T16:47:24.082Z,45.91
2023-02-25T16:49:53.204Z,46.13
2023-02-25T16:52:32.881Z,45.42
2023-02-25T16:55:12.392Z,45.37
2023-02-25T16:57:39.604Z,45.19
2023-02-25T17:00:15.963Z,45.17
2023-02-25T17:02:46.962Z,45.69
2023-02-25T17:05:26.715Z,45.69
2023-02-25T17:08:00.482Z,45.90
2023-02-25T17:10:32.197Z,45.31
2023-02-25T17:13:03.001Z,45.36
2023-02-25T17:15:33.252Z,44.71
2023-02-25T17:18:11.799Z,44.97
2023-02-25T17:20:38.862Z,46.11
2023-02-25T17:23:13.640Z,45.99
2023-02-25T17:25:43.350Z,46.61
2023-02-25T17:28:19.949Z,45.99
2023-02-25T17:30:47.500Z,45.81
2023-02-25T17:33:28.308Z,45.55
2023-02-25T17:36:09.566Z,45.27
2023-02-25T17:38:38.997Z,45.79
2023-02-25T17:41:06.426Z,45.85
2023-02-25T17:43:36.931Z,46.53
2023-02-25T17:46:16.683Z,46.97
2023-02-25T17:48:50.241Z,46.99
2023-02-25T17:51:17.609Z,46.92
2023-02-25T17:53:48.466Z,46.79
2023-02-25T17:56:23.000Z,46.31
2023-02-25T17:58:52.621Z,46.23
2023-02-25T18:01:26.170Z,46.22
2023-02-25T18:03:53.798Z,46.57
2023-02-25T18:06:34.552Z,47.20
2023-02-25T18:09:04.443Z,46.45
2023-02-25T18:11:37.973Z,46.56
2023-02-25T18:14:43.829Z,47.00
2023-02-25T18:17:26.086Z,47.10
2023-02-25T18:19:56.531Z,47.45
2023-02-25T18:22:46.642Z,47.77
2023-02-25T18:25:30.841Z,48.47
2023-02-25T18:27:58.272Z,49.01
2023-02-25T18:30:27.394Z,50.83
2023-02-25T18:32:54.793Z,50.07
2023-02-25T18:35:22.323Z,49.88
2023-02-25T18:37:51.039Z,50.81
2023-02-25T18:40:30.646Z,49.94
2023-02-25T18:42:58.791Z,49.40
2023-02-25T18:45:27.886Z,50.40
2023-02-25T18:47:57.016Z,50.27
2023-02-25T18:50:25.024Z,50.31
2023-02-25T18:52:52.042Z,49.99
2023-02-25T18:55:22.086Z,50.24
2023-02-25T18:57:49.506Z,50.22
2023-02-25T19:00:18.492Z,51.15
2023-02-25T19:03:02.372Z,53.45
2023-02-25T19:05:29.920Z,53.27
2023-02-25T19:07:57.518Z,53.26
2023-02-25T19:10:31.863Z,54.19
2023-02-25T19:13:05.269Z,54.26
2023-02-25T19:15:33.083Z,55.39
2023-02-25T19:18:00.636Z,55.79
2023-02-25T19:20:27.731Z,55.23
2023-02-25T19:22:55.065Z,55.84
2023-02-25T19:25:28.285Z,55.63
2023-02-25T19:27:57.187Z,56.10
2023-02-25T19:30:27.663Z,56.62
2023-02-25T19:32:55.557Z,56.52
2023-02-25T19:35:23.461Z,55.96
2023-02-25T19:37:50.446Z,56.23
2023-02-25T19:40:17.412Z,55.74
2023-02-25T19:42:45.093Z,55.53
2023-02-25T19:45:15.106Z,55.55
2023-02-25T19:47:42.433Z,54.32
2023-02-25T19:50:10.022Z,54.45
2023-02-25T19:52:37.121Z,54.44
2023-02-25T19:55:05.368Z,55.63
2023-02-25T19:57:33.274Z,56.48
2023-02-25T20:00:00.595Z,56.81
2023-02-25T20:02:27.736Z,56.58
2023-02-25T20:04:55.247Z,55.86
2023-02-25T20:07:22.325Z,57.26
2023-02-25T20:09:49.548Z,57.46
2023-02-25T20:12:16.640Z,57.51
2023-02-25T20:14:44.190Z,56.92
2023-02-25T20:17:11.289Z,58.44
2023-02-25T20:19:38.353Z,57.84
2023-02-25T20:22:08.712Z,56.70
2023-02-25T20:24:36.253Z,55.90
2023-02-25T20:27:03.202Z,56.06
2023-02-25T20:29:30.411Z,56.30
2023-02-25T20:31:58.046Z,57.75
2023-02-25T20:34:28.540Z,57.17
2023-02-25T20:37:06.370Z,56.77
2023-02-25T20:39:39.104Z,56.77
2023-02-25T20:42:15.220Z,57.50
2023-02-25T20:44:42.384Z,56.73
2023-02-25T20:47:17.138Z,55.41
2023-02-25T20:49:44.377Z,56.64
2023-02-25T20:52:13.717Z,56.10
2023-02-25T20:54:40.929Z,57.62
2023-02-25T20:57:11.645Z,57.29
2023-02-25T20:59:38.695Z,57.94
2023-02-25T21:02:06.161Z,59.13
2023-02-25T21:04:33.277Z,58.22
2023-02-25T21:07:00.302Z,57.91
2023-02-25T21:09:27.390Z,59.68
2023-02-25T21:11:54.429Z,60.52
2023-02-25T21:14:21.677Z,61.58
2023-02-25T21:16:54.467Z,59.93
2023-02-25T21:19:23.370Z,58.91
2023-02-25T21:21:51.817Z,58.38
2023-02-25T21:24:19.353Z,59.64
2023-02-25T21:26:47.116Z,60.63
2023-02-25T21:29:14.950Z,62.35
2023-02-25T21:31:42.424Z,61.41
2023-02-25T21:34:13.015Z,61.45
2023-02-25T21:36:41.671Z,59.62
2023-02-25T21:39:12.787Z,59.77
2023-02-25T21:41:44.390Z,60.32
2023-02-25T21:44:12.409Z,60.41
2023-02-25T21:46:40.355Z,60.21
2023-02-25T21:49:07.426Z,60.86
2023-02-25T21:51:34.405Z,61.26
2023-02-25T21:54:01.834Z,60.95
2023-02-25T21:56:30.081Z,61.69
2023-02-25T21:58:59.972Z,61.34
2023-02-25T22:01:31.361Z,62.79
2023-02-25T22:03:58.843Z,61.57
2023-02-25T22:06:26.405Z,62.78
2023-02-25T22:08:54.518Z,62.47
2023-02-25T22:11:24.978Z,61.29
2023-02-25T22:13:52.820Z,61.50
2023-02-25T22:16:20.897Z,61.94
2023-02-25T22:18:47.772Z,61.59
2023-02-25T22:21:23.276Z,62.22
2023-02-25T22:23:52.098Z,62.13
2023-02-25T22:26:22.020Z,60.90
2023-02-25T22:28:49.056Z,60.48
2023-02-25T22:31:17.685Z,60.16
2023-02-25T22:33:45.764Z,64.05
2023-02-25T22:36:15.305Z,65.16
2023-02-25T22:38:43.649Z,63.26
2023-02-25T22:41:19.195Z,63.36
2023-02-25T22:43:46.509Z,63.87
2023-02-25T22:46:16.892Z,62.50
2023-02-25T22:48:45.818Z,62.46
2023-02-25T22:51:14.127Z,61.97
2023-02-25T22:53:41.331Z,61.73
2023-02-25T22:56:10.720Z,61.81
2023-02-25T22:58:40.535Z,61.95
2023-02-25T23:01:13.103Z,61.04
2023-02-25T23:03:40.620Z,61.15
2023-02-25T23:06:07.807Z,61.43
2023-02-25T23:08:36.228Z,62.54
2023-02-25T23:11:18.637Z,62.30
2023-02-25T23:13:50.937Z,62.64
2023-02-25T23:16:42.186Z,62.74
2023-02-25T23:19:13.767Z,63.40
2023-02-25T23:21:41.077Z,63.34
2023-02-25T23:24:09.290Z,64.15
2023-02-25T23:26:40.709Z,63.30
2023-02-25T23:29:10.001Z,63.71
2023-02-25T23:31:42.209Z,63.40
2023-02-25T23:34:13.011Z,63.72
2023-02-25T23:36:42.932Z,63.26
2023-02-25T23:39:11.989Z,63.27
2023-02-25T23:41:39.296Z,64.43
2023-02-25T23:44:09.183Z,64.91
2023-02-25T23:46:37.275Z,64.25
2023-02-25T23:49:07.396Z,64.39
2023-02-25T23:51:35.935Z,65.11
2023-02-25T23:54:05.445Z,65.91
2023-02-25T23:56:33.332Z,66.10
2023-02-25T23:59:00.368Z,65.40
